sensor_id;sensor_type;location;lat;lon;timestamp;P1;durP1;ratioP1;P2;durP2;ratioP2
43664;SDS011;29263;48.172;11.484;2023-04-10T00:01:42;10.13;;;6.60;;
43664;SDS011;29263;48.172;11.484;2023-04-10T00:04:08;10.30;;;6.63;;
43664;SDS011;29263;48.172;11.484;2023-04-10T00:06:34;10.03;;;6.33;;
43664;SDS011;29263;48.172;11.484;2023-04-10T00:09:00;11.77;;;7.40;;
43664;SDS011;29263;48.172;11.484;2023-04-10T00:11:25;16.50;;;6.97;;
43664;SDS011;29263;48.172;11.484;2023-04-10T00:13:52;10.50;;;6.70;;
43664;SDS011;29263;48.172;11.484;2023-04-10T00:16:18;12.10;;;7.00;;
43664;SDS011;29263;48.172;11.484;2023-04-10T00:18:44;9.53;;;6.50;;
43664;SDS011;29263;48.172;11.484;2023-04-10T00:21:09;10.00;;;6.87;;
43664;SDS011;29263;48.172;11.484;2023-04-10T00:23:35;9.63;;;6.53;;
43664;SDS011;29263;48.172;11.484;2023-04-10T00:26:01;10.80;;;7.03;;
43664;SDS011;29263;48.172;11.484;2023-04-10T00:28:27;9.90;;;6.67;;
43664;SDS011;29263;48.172;11.484;2023-04-10T00:30:53;10.77;;;7.13;;
43664;SDS011;29263;48.172;11.484;2023-04-10T00:33:19;13.27;;;7.60;;
43664;SDS011;29263;48.172;11.484;2023-04-10T00:35:45;10.80;;;6.77;;
43664;SDS011;29263;48.172;11.484;2023-04-10T00:38:11;10.03;;;7.30;;
43664;SDS011;29263;48.172;11.484;2023-04-10T00:40:36;10.13;;;7.00;;
43664;SDS011;29263;48.172;11.484;2023-04-10T00:43:02;11.53;;;6.97;;
43664;SDS011;29263;48.172;11.484;2023-04-10T00:45:27;10.93;;;7.17;;
43664;SDS011;29263;48.172;11.484;2023-04-10T00:47:53;9.77;;;6.83;;
43664;SDS011;29263;48.172;11.484;2023-04-10T00:50:20;10.57;;;7.23;;
43664;SDS011;29263;48.172;11.484;2023-04-10T00:52:46;11.27;;;7.87;;
43664;SDS011;29263;48.172;11.484;2023-04-10T00:55:13;11.20;;;7.40;;
43664;SDS011;29263;48.172;11.484;2023-04-10T00:57:42;14.43;;;6.97;;
43664;SDS011;29263;48.172;11.484;2023-04-10T01:00:10;11.77;;;7.43;;
43664;SDS011;29263;48.172;11.484;2023-04-10T01:05:05;8.77;;;5.87;;
43664;SDS011;29263;48.172;11.484;2023-04-10T01:13:15;10.87;;;6.63;;
43664;SDS011;29263;48.172;11.484;2023-04-10T01:15:43;8.97;;;6.40;;
43664;SDS011;29263;48.172;11.484;2023-04-10T01:18:28;9.30;;;6.57;;
43664;SDS011;29263;48.172;11.484;2023-04-10T01:21:01;10.83;;;6.67;;
43664;SDS011;29263;48.172;11.484;2023-04-10T01:26:10;12.43;;;6.87;;
43664;SDS011;29263;48.172;11.484;2023-04-10T01:31:16;10.53;;;6.60;;
43664;SDS011;29263;48.172;11.484;2023-04-10T01:33:47;10.30;;;6.93;;
43664;SDS011;29263;48.172;11.484;2023-04-10T01:36:25;10.50;;;6.60;;
43664;SDS011;29263;48.172;11.484;2023-04-10T01:38:55;8.80;;;6.13;;
43664;SDS011;29263;48.172;11.484;2023-04-10T01:41:25;11.17;;;7.10;;
43664;SDS011;29263;48.172;11.484;2023-04-10T01:43:52;11.27;;;6.67;;
43664;SDS011;29263;48.172;11.484;2023-04-10T01:46:20;9.70;;;6.43;;
43664;SDS011;29263;48.172;11.484;2023-04-10T01:48:48;12.23;;;7.20;;
43664;SDS011;29263;48.172;11.484;2023-04-10T01:51:15;10.47;;;6.77;;
43664;SDS011;29263;48.172;11.484;2023-04-10T01:53:44;12.03;;;6.73;;
43664;SDS011;29263;48.172;11.484;2023-04-10T01:56:11;9.53;;;6.53;;
43664;SDS011;29263;48.172;11.484;2023-04-10T01:58:37;10.97;;;6.30;;
43664;SDS011;29263;48.172;11.484;2023-04-10T02:01:03;11.57;;;6.73;;
43664;SDS011;29263;48.172;11.484;2023-04-10T02:03:29;11.00;;;6.77;;
43664;SDS011;29263;48.172;11.484;2023-04-10T02:08:47;10.97;;;7.03;;
43664;SDS011;29263;48.172;11.484;2023-04-10T02:13:58;10.87;;;7.03;;
43664;SDS011;29263;48.172;11.484;2023-04-10T02:16:28;8.77;;;6.30;;
43664;SDS011;29263;48.172;11.484;2023-04-10T02:18:55;10.67;;;6.60;;
43664;SDS011;29263;48.172;11.484;2023-04-10T02:21:23;11.17;;;6.80;;
43664;SDS011;29263;48.172;11.484;2023-04-10T02:23:48;13.63;;;7.30;;
43664;SDS011;29263;48.172;11.484;2023-04-10T02:26:14;9.53;;;6.73;;
43664;SDS011;29263;48.172;11.484;2023-04-10T02:28:40;9.10;;;5.87;;
43664;SDS011;29263;48.172;11.484;2023-04-10T02:31:05;11.20;;;6.97;;
43664;SDS011;29263;48.172;11.484;2023-04-10T02:33:31;10.40;;;7.03;;
43664;SDS011;29263;48.172;11.484;2023-04-10T02:35:58;10.07;;;6.47;;
43664;SDS011;29263;48.172;11.484;2023-04-10T02:38:25;9.73;;;6.50;;
43664;SDS011;29263;48.172;11.484;2023-04-10T02:40:51;9.77;;;6.80;;
43664;SDS011;29263;48.172;11.484;2023-04-10T02:43:17;12.10;;;7.30;;
43664;SDS011;29263;48.172;11.484;2023-04-10T02:45:42;9.60;;;6.17;;
43664;SDS011;29263;48.172;11.484;2023-04-10T02:48:08;9.47;;;6.30;;
43664;SDS011;29263;48.172;11.484;2023-04-10T02:50:35;12.00;;;6.63;;
43664;SDS011;29263;48.172;11.484;2023-04-10T02:53:00;11.67;;;6.93;;
43664;SDS011;29263;48.172;11.484;2023-04-10T02:55:26;11.10;;;6.50;;
43664;SDS011;29263;48.172;11.484;2023-04-10T02:57:52;10.23;;;6.30;;
43664;SDS011;29263;48.172;11.484;2023-04-10T03:00:17;9.83;;;6.23;;
43664;SDS011;29263;48.172;11.484;2023-04-10T03:02:43;10.97;;;6.87;;
43664;SDS011;29263;48.172;11.484;2023-04-10T03:05:09;8.80;;;6.27;;
43664;SDS011;29263;48.172;11.484;2023-04-10T03:07:35;12.50;;;6.97;;
43664;SDS011;29263;48.172;11.484;2023-04-10T03:10:04;10.60;;;7.00;;
43664;SDS011;29263;48.172;11.484;2023-04-10T03:12:30;9.60;;;5.73;;
43664;SDS011;29263;48.172;11.484;2023-04-10T03:14:56;11.50;;;6.97;;
43664;SDS011;29263;48.172;11.484;2023-04-10T03:17:21;10.70;;;6.53;;
43664;SDS011;29263;48.172;11.484;2023-04-10T03:19:47;10.93;;;6.73;;
43664;SDS011;29263;48.172;11.484;2023-04-10T03:22:12;10.07;;;6.33;;
43664;SDS011;29263;48.172;11.484;2023-04-10T03:24:38;10.83;;;6.33;;
43664;SDS011;29263;48.172;11.484;2023-04-10T03:27:05;8.07;;;5.27;;
43664;SDS011;29263;48.172;11.484;2023-04-10T03:29:30;12.27;;;6.50;;
43664;SDS011;29263;48.172;11.484;2023-04-10T03:31:56;9.87;;;6.00;;
43664;SDS011;29263;48.172;11.484;2023-04-10T03:34:21;12.10;;;6.33;;
43664;SDS011;29263;48.172;11.484;2023-04-10T03:36:47;8.90;;;5.47;;
43664;SDS011;29263;48.172;11.484;2023-04-10T03:39:12;9.20;;;6.17;;
43664;SDS011;29263;48.172;11.484;2023-04-10T03:41:38;9.93;;;6.17;;
43664;SDS011;29263;48.172;11.484;2023-04-10T03:44:04;8.43;;;5.20;;
43664;SDS011;29263;48.172;11.484;2023-04-10T03:46:30;9.30;;;5.93;;
43664;SDS011;29263;48.172;11.484;2023-04-10T03:48:55;9.60;;;5.40;;
43664;SDS011;29263;48.172;11.484;2023-04-10T03:51:21;9.07;;;5.70;;
43664;SDS011;29263;48.172;11.484;2023-04-10T03:53:48;10.10;;;6.03;;
43664;SDS011;29263;48.172;11.484;2023-04-10T03:56:14;9.43;;;5.87;;
43664;SDS011;29263;48.172;11.484;2023-04-10T03:58:40;8.93;;;5.47;;
43664;SDS011;29263;48.172;11.484;2023-04-10T04:01:06;8.00;;;5.30;;
43664;SDS011;29263;48.172;11.484;2023-04-10T04:03:32;9.53;;;5.47;;
43664;SDS011;29263;48.172;11.484;2023-04-10T04:05:57;9.43;;;6.00;;
43664;SDS011;29263;48.172;11.484;2023-04-10T04:08:23;9.10;;;5.73;;
43664;SDS011;29263;48.172;11.484;2023-04-10T04:10:48;8.10;;;5.47;;
43664;SDS011;29263;48.172;11.484;2023-04-10T04:13:14;9.00;;;5.30;;
43664;SDS011;29263;48.172;11.484;2023-04-10T04:15:40;9.97;;;5.17;;
43664;SDS011;29263;48.172;11.484;2023-04-10T04:18:06;9.83;;;6.23;;
43664;SDS011;29263;48.172;11.484;2023-04-10T04:20:32;8.63;;;5.87;;
43664;SDS011;29263;48.172;11.484;2023-04-10T04:22:58;8.70;;;5.23;;
43664;SDS011;29263;48.172;11.484;2023-04-10T04:25:23;10.10;;;6.13;;
43664;SDS011;29263;48.172;11.484;2023-04-10T04:27:49;8.80;;;5.60;;
43664;SDS011;29263;48.172;11.484;2023-04-10T04:30:15;7.80;;;5.50;;
43664;SDS011;29263;48.172;11.484;2023-04-10T04:32:41;7.37;;;4.97;;
43664;SDS011;29263;48.172;11.484;2023-04-10T04:35:07;7.77;;;5.00;;
43664;SDS011;29263;48.172;11.484;2023-04-10T04:37:33;9.83;;;5.30;;
43664;SDS011;29263;48.172;11.484;2023-04-10T04:39:58;6.93;;;4.50;;
43664;SDS011;29263;48.172;11.484;2023-04-10T04:42:24;7.90;;;5.00;;
43664;SDS011;29263;48.172;11.484;2023-04-10T04:44:50;9.57;;;5.27;;
43664;SDS011;29263;48.172;11.484;2023-04-10T04:47:16;9.13;;;5.33;;
43664;SDS011;29263;48.172;11.484;2023-04-10T04:49:41;7.60;;;5.30;;
43664;SDS011;29263;48.172;11.484;2023-04-10T04:52:07;9.97;;;5.17;;
43664;SDS011;29263;48.172;11.484;2023-04-10T04:54:33;8.83;;;5.03;;
43664;SDS011;29263;48.172;11.484;2023-04-10T04:56:58;9.97;;;5.77;;
43664;SDS011;29263;48.172;11.484;2023-04-10T04:59:25;7.33;;;4.73;;
43664;SDS011;29263;48.172;11.484;2023-04-10T05:01:51;9.00;;;5.77;;
43664;SDS011;29263;48.172;11.484;2023-04-10T05:04:16;8.47;;;5.30;;
43664;SDS011;29263;48.172;11.484;2023-04-10T05:06:42;8.07;;;5.60;;
43664;SDS011;29263;48.172;11.484;2023-04-10T05:09:08;8.30;;;4.83;;
43664;SDS011;29263;48.172;11.484;2023-04-10T05:11:33;7.43;;;4.57;;
43664;SDS011;29263;48.172;11.484;2023-04-10T05:13:59;7.10;;;4.23;;
43664;SDS011;29263;48.172;11.484;2023-04-10T05:16:25;9.50;;;6.37;;
43664;SDS011;29263;48.172;11.484;2023-04-10T05:18:51;7.97;;;5.13;;
43664;SDS011;29263;48.172;11.484;2023-04-10T05:21:16;7.90;;;4.90;;
43664;SDS011;29263;48.172;11.484;2023-04-10T05:23:42;8.67;;;5.40;;
43664;SDS011;29263;48.172;11.484;2023-04-10T05:26:08;8.53;;;5.13;;
43664;SDS011;29263;48.172;11.484;2023-04-10T05:28:33;9.20;;;5.67;;
43664;SDS011;29263;48.172;11.484;2023-04-10T05:30:59;7.03;;;4.77;;
43664;SDS011;29263;48.172;11.484;2023-04-10T05:33:25;9.13;;;5.20;;
43664;SDS011;29263;48.172;11.484;2023-04-10T05:35:51;8.67;;;5.27;;
43664;SDS011;29263;48.172;11.484;2023-04-10T05:38:17;9.03;;;5.63;;
43664;SDS011;29263;48.172;11.484;2023-04-10T05:40:45;7.03;;;4.93;;
43664;SDS011;29263;48.172;11.484;2023-04-10T05:43:11;6.78;;;4.90;;
43664;SDS011;29263;48.172;11.484;2023-04-10T05:45:37;8.20;;;5.17;;
43664;SDS011;29263;48.172;11.484;2023-04-10T05:48:04;7.20;;;5.07;;
43664;SDS011;29263;48.172;11.484;2023-04-10T05:50:30;7.30;;;4.80;;
43664;SDS011;29263;48.172;11.484;2023-04-10T05:52:55;7.37;;;4.93;;
43664;SDS011;29263;48.172;11.484;2023-04-10T05:55:21;9.63;;;5.83;;
43664;SDS011;29263;48.172;11.484;2023-04-10T05:57:47;7.60;;;4.80;;
43664;SDS011;29263;48.172;11.484;2023-04-10T06:00:15;8.93;;;5.40;;
43664;SDS011;29263;48.172;11.484;2023-04-10T06:02:42;7.77;;;5.30;;
43664;SDS011;29263;48.172;11.484;2023-04-10T06:05:07;9.43;;;5.10;;
43664;SDS011;29263;48.172;11.484;2023-04-10T06:07:33;7.53;;;4.67;;
43664;SDS011;29263;48.172;11.484;2023-04-10T06:09:59;7.93;;;4.73;;
43664;SDS011;29263;48.172;11.484;2023-04-10T06:12:24;6.87;;;4.80;;
43664;SDS011;29263;48.172;11.484;2023-04-10T06:14:50;6.33;;;4.43;;
43664;SDS011;29263;48.172;11.484;2023-04-10T06:17:15;9.53;;;5.40;;
43664;SDS011;29263;48.172;11.484;2023-04-10T06:19:41;7.43;;;5.03;;
43664;SDS011;29263;48.172;11.484;2023-04-10T06:22:07;7.30;;;5.07;;
43664;SDS011;29263;48.172;11.484;2023-04-10T06:24:32;8.97;;;5.77;;
43664;SDS011;29263;48.172;11.484;2023-04-10T06:26:58;8.37;;;5.67;;
43664;SDS011;29263;48.172;11.484;2023-04-10T06:29:23;8.00;;;5.20;;
43664;SDS011;29263;48.172;11.484;2023-04-10T06:31:49;7.73;;;5.10;;
43664;SDS011;29263;48.172;11.484;2023-04-10T06:34:15;7.33;;;5.10;;
43664;SDS011;29263;48.172;11.484;2023-04-10T06:36:41;8.03;;;5.00;;
43664;SDS011;29263;48.172;11.484;2023-04-10T06:39:06;8.40;;;5.70;;
43664;SDS011;29263;48.172;11.484;2023-04-10T06:41:32;7.77;;;5.07;;
43664;SDS011;29263;48.172;11.484;2023-04-10T06:43:58;8.73;;;5.80;;
43664;SDS011;29263;48.172;11.484;2023-04-10T06:46:23;8.53;;;5.23;;
43664;SDS011;29263;48.172;11.484;2023-04-10T06:48:51;8.57;;;5.60;;
43664;SDS011;29263;48.172;11.484;2023-04-10T06:51:16;7.07;;;5.00;;
43664;SDS011;29263;48.172;11.484;2023-04-10T06:53:42;7.67;;;4.97;;
43664;SDS011;29263;48.172;11.484;2023-04-10T06:56:08;6.70;;;4.83;;
43664;SDS011;29263;48.172;11.484;2023-04-10T06:58:34;7.97;;;5.40;;
43664;SDS011;29263;48.172;11.484;2023-04-10T07:00:59;8.40;;;5.63;;
43664;SDS011;29263;48.172;11.484;2023-04-10T07:03:28;6.90;;;4.90;;
43664;SDS011;29263;48.172;11.484;2023-04-10T07:05:54;7.00;;;5.17;;
43664;SDS011;29263;48.172;11.484;2023-04-10T07:08:20;6.20;;;4.97;;
43664;SDS011;29263;48.172;11.484;2023-04-10T07:10:46;5.43;;;4.40;;
43664;SDS011;29263;48.172;11.484;2023-04-10T07:13:12;7.27;;;5.00;;
43664;SDS011;29263;48.172;11.484;2023-04-10T07:15:37;6.43;;;4.93;;
43664;SDS011;29263;48.172;11.484;2023-04-10T07:18:04;6.40;;;4.90;;
43664;SDS011;29263;48.172;11.484;2023-04-10T07:20:30;7.90;;;5.17;;
43664;SDS011;29263;48.172;11.484;2023-04-10T07:22:56;5.90;;;4.63;;
43664;SDS011;29263;48.172;11.484;2023-04-10T07:25:21;6.23;;;4.90;;
43664;SDS011;29263;48.172;11.484;2023-04-10T07:27:47;6.43;;;4.50;;
43664;SDS011;29263;48.172;11.484;2023-04-10T07:30:13;6.80;;;4.90;;
43664;SDS011;29263;48.172;11.484;2023-04-10T07:32:38;5.67;;;4.23;;
43664;SDS011;29263;48.172;11.484;2023-04-10T07:35:06;6.47;;;4.30;;
43664;SDS011;29263;48.172;11.484;2023-04-10T07:37:31;6.30;;;4.60;;
43664;SDS011;29263;48.172;11.484;2023-04-10T07:39:57;5.40;;;4.20;;
43664;SDS011;29263;48.172;11.484;2023-04-10T07:42:23;5.17;;;3.87;;
43664;SDS011;29263;48.172;11.484;2023-04-10T07:44:48;5.93;;;4.27;;
43664;SDS011;29263;48.172;11.484;2023-04-10T07:47:14;6.63;;;4.53;;
43664;SDS011;29263;48.172;11.484;2023-04-10T07:49:43;6.57;;;4.43;;
43664;SDS011;29263;48.172;11.484;2023-04-10T07:52:08;5.73;;;4.60;;
43664;SDS011;29263;48.172;11.484;2023-04-10T07:54:35;6.70;;;5.10;;
43664;SDS011;29263;48.172;11.484;2023-04-10T07:57:00;5.07;;;3.93;;
43664;SDS011;29263;48.172;11.484;2023-04-10T07:59:26;5.53;;;4.17;;
43664;SDS011;29263;48.172;11.484;2023-04-10T08:01:52;4.90;;;3.67;;
43664;SDS011;29263;48.172;11.484;2023-04-10T08:04:18;5.43;;;3.67;;
43664;SDS011;29263;48.172;11.484;2023-04-10T08:06:44;4.23;;;3.47;;
43664;SDS011;29263;48.172;11.484;2023-04-10T08:09:10;5.00;;;3.83;;
43664;SDS011;29263;48.172;11.484;2023-04-10T08:11:35;5.70;;;3.70;;
43664;SDS011;29263;48.172;11.484;2023-04-10T08:14:01;4.57;;;3.70;;
43664;SDS011;29263;48.172;11.484;2023-04-10T08:16:28;4.13;;;3.17;;
43664;SDS011;29263;48.172;11.484;2023-04-10T08:18:55;4.87;;;3.80;;
43664;SDS011;29263;48.172;11.484;2023-04-10T08:21:22;5.33;;;3.90;;
43664;SDS011;29263;48.172;11.484;2023-04-10T08:23:52;4.73;;;3.40;;
43664;SDS011;29263;48.172;11.484;2023-04-10T08:26:18;4.70;;;3.80;;
43664;SDS011;29263;48.172;11.484;2023-04-10T08:28:45;4.17;;;3.17;;
43664;SDS011;29263;48.172;11.484;2023-04-10T08:31:14;5.13;;;3.65;;
43664;SDS011;29263;48.172;11.484;2023-04-10T08:33:39;4.67;;;3.30;;
43664;SDS011;29263;48.172;11.484;2023-04-10T08:36:05;4.40;;;3.30;;
43664;SDS011;29263;48.172;11.484;2023-04-10T08:38:32;4.87;;;3.53;;
43664;SDS011;29263;48.172;11.484;2023-04-10T08:40:58;4.37;;;3.33;;
43664;SDS011;29263;48.172;11.484;2023-04-10T08:43:24;4.87;;;3.70;;
43664;SDS011;29263;48.172;11.484;2023-04-10T08:45:51;5.03;;;3.70;;
43664;SDS011;29263;48.172;11.484;2023-04-10T08:48:19;5.13;;;4.07;;
43664;SDS011;29263;48.172;11.484;2023-04-10T08:50:45;5.17;;;3.60;;
43664;SDS011;29263;48.172;11.484;2023-04-10T08:53:13;4.40;;;3.30;;
43664;SDS011;29263;48.172;11.484;2023-04-10T08:55:40;4.22;;;3.28;;
43664;SDS011;29263;48.172;11.484;2023-04-10T08:58:07;4.30;;;3.72;;
43664;SDS011;29263;48.172;11.484;2023-04-10T09:00:35;5.10;;;3.53;;
43664;SDS011;29263;48.172;11.484;2023-04-10T09:03:05;3.53;;;2.90;;
43664;SDS011;29263;48.172;11.484;2023-04-10T09:05:35;4.57;;;3.38;;
43664;SDS011;29263;48.172;11.484;2023-04-10T09:08:02;4.55;;;3.42;;
43664;SDS011;29263;48.172;11.484;2023-04-10T09:10:28;5.78;;;3.40;;
43664;SDS011;29263;48.172;11.484;2023-04-10T09:12:54;4.60;;;3.50;;
43664;SDS011;29263;48.172;11.484;2023-04-10T09:15:20;4.40;;;3.50;;
43664;SDS011;29263;48.172;11.484;2023-04-10T09:18:01;4.40;;;3.30;;
43664;SDS011;29263;48.172;11.484;2023-04-10T09:20:28;4.60;;;3.22;;
43664;SDS011;29263;48.172;11.484;2023-04-10T09:22:55;4.13;;;3.20;;
43664;SDS011;29263;48.172;11.484;2023-04-10T09:25:54;4.70;;;3.25;;
43664;SDS011;29263;48.172;11.484;2023-04-10T09:28:12;3.75;;;3.33;;
43664;SDS011;29263;48.172;11.484;2023-04-10T09:30:39;3.78;;;2.95;;
43664;SDS011;29263;48.172;11.484;2023-04-10T09:33:26;4.13;;;3.03;;
43664;SDS011;29263;48.172;11.484;2023-04-10T09:35:52;4.15;;;2.90;;
43664;SDS011;29263;48.172;11.484;2023-04-10T09:38:19;3.53;;;2.78;;
43664;SDS011;29263;48.172;11.484;2023-04-10T09:40:46;3.22;;;2.65;;
43664;SDS011;29263;48.172;11.484;2023-04-10T09:43:16;3.33;;;2.78;;
43664;SDS011;29263;48.172;11.484;2023-04-10T09:45:50;3.65;;;2.45;;
43664;SDS011;29263;48.172;11.484;2023-04-10T09:48:20;3.92;;;2.85;;
43664;SDS011;29263;48.172;11.484;2023-04-10T09:50:47;3.47;;;2.58;;
43664;SDS011;29263;48.172;11.484;2023-04-10T09:53:13;3.65;;;2.70;;
43664;SDS011;29263;48.172;11.484;2023-04-10T09:55:43;5.20;;;2.53;;
43664;SDS011;29263;48.172;11.484;2023-04-10T09:58:10;3.33;;;2.80;;
43664;SDS011;29263;48.172;11.484;2023-04-10T10:00:38;3.88;;;2.80;;
43664;SDS011;29263;48.172;11.484;2023-04-10T10:03:06;3.80;;;2.60;;
43664;SDS011;29263;48.172;11.484;2023-04-10T10:05:37;3.08;;;2.53;;
43664;SDS011;29263;48.172;11.484;2023-04-10T10:08:05;3.35;;;2.42;;
43664;SDS011;29263;48.172;11.484;2023-04-10T10:10:33;3.42;;;2.80;;
43664;SDS011;29263;48.172;11.484;2023-04-10T10:13:03;2.80;;;2.28;;
43664;SDS011;29263;48.172;11.484;2023-04-10T10:15:40;3.03;;;2.20;;
43664;SDS011;29263;48.172;11.484;2023-04-10T10:21:09;2.97;;;2.17;;
43664;SDS011;29263;48.172;11.484;2023-04-10T10:23:35;2.40;;;2.03;;
43664;SDS011;29263;48.172;11.484;2023-04-10T10:26:04;3.05;;;2.60;;
43664;SDS011;29263;48.172;11.484;2023-04-10T10:28:33;3.47;;;2.40;;
43664;SDS011;29263;48.172;11.484;2023-04-10T10:31:01;3.88;;;2.58;;
43664;SDS011;29263;48.172;11.484;2023-04-10T10:33:28;2.78;;;2.15;;
43664;SDS011;29263;48.172;11.484;2023-04-10T10:35:57;3.42;;;2.30;;
43664;SDS011;29263;48.172;11.484;2023-04-10T10:38:26;2.65;;;2.03;;
43664;SDS011;29263;48.172;11.484;2023-04-10T10:43:54;3.20;;;2.47;;
43664;SDS011;29263;48.172;11.484;2023-04-10T10:47:00;2.53;;;2.15;;
43664;SDS011;29263;48.172;11.484;2023-04-10T11:00:20;3.47;;;2.65;;
43664;SDS011;29263;48.172;11.484;2023-04-10T11:11:00;2.80;;;2.40;;
43664;SDS011;29263;48.172;11.484;2023-04-10T11:16:23;4.13;;;2.30;;
43664;SDS011;29263;48.172;11.484;2023-04-10T11:19:09;5.05;;;2.55;;
43664;SDS011;29263;48.172;11.484;2023-04-10T11:22:20;3.13;;;2.53;;
43664;SDS011;29263;48.172;11.484;2023-04-10T11:26:54;3.05;;;2.58;;
43664;SDS011;29263;48.172;11.484;2023-04-10T11:31:55;3.28;;;2.30;;
43664;SDS011;29263;48.172;11.484;2023-04-10T11:34:22;2.85;;;2.25;;
43664;SDS011;29263;48.172;11.484;2023-04-10T11:36:49;2.85;;;2.20;;
43664;SDS011;29263;48.172;11.484;2023-04-10T11:39:15;3.42;;;2.30;;
43664;SDS011;29263;48.172;11.484;2023-04-10T11:41:51;2.40;;;1.98;;
43664;SDS011;29263;48.172;11.484;2023-04-10T11:44:29;3.67;;;2.80;;
43664;SDS011;29263;48.172;11.484;2023-04-10T11:47:11;2.22;;;1.77;;
43664;SDS011;29263;48.172;11.484;2023-04-10T11:49:42;2.95;;;2.08;;
43664;SDS011;29263;48.172;11.484;2023-04-10T11:52:25;3.15;;;2.17;;
43664;SDS011;29263;48.172;11.484;2023-04-10T11:58:39;2.83;;;2.25;;
43664;SDS011;29263;48.172;11.484;2023-04-10T12:01:22;2.60;;;2.20;;
43664;SDS011;29263;48.172;11.484;2023-04-10T12:03:51;2.55;;;2.17;;
43664;SDS011;29263;48.172;11.484;2023-04-10T12:06:20;2.70;;;2.33;;
43664;SDS011;29263;48.172;11.484;2023-04-10T12:08:46;2.38;;;1.80;;
43664;SDS011;29263;48.172;11.484;2023-04-10T12:11:21;3.90;;;2.10;;
43664;SDS011;29263;48.172;11.484;2023-04-10T12:13:56;2.50;;;2.10;;
43664;SDS011;29263;48.172;11.484;2023-04-10T12:16:23;2.00;;;1.77;;
43664;SDS011;29263;48.172;11.484;2023-04-10T12:18:51;2.85;;;1.90;;
43664;SDS011;29263;48.172;11.484;2023-04-10T12:21:20;3.65;;;2.25;;
43664;SDS011;29263;48.172;11.484;2023-04-10T12:23:46;2.95;;;2.30;;
43664;SDS011;29263;48.172;11.484;2023-04-10T12:26:15;2.72;;;2.30;;
43664;SDS011;29263;48.172;11.484;2023-04-10T12:28:50;3.00;;;1.92;;
43664;SDS011;29263;48.172;11.484;2023-04-10T12:31:32;2.55;;;1.80;;
43664;SDS011;29263;48.172;11.484;2023-04-10T12:36:28;2.28;;;1.83;;
43664;SDS011;29263;48.172;11.484;2023-04-10T12:38:55;2.03;;;1.52;;
43664;SDS011;29263;48.172;11.484;2023-04-10T12:41:22;2.05;;;1.55;;
43664;SDS011;29263;48.172;11.484;2023-04-10T12:43:50;2.10;;;1.90;;
43664;SDS011;29263;48.172;11.484;2023-04-10T12:46:24;2.22;;;2.03;;
43664;SDS011;29263;48.172;11.484;2023-04-10T12:48:52;2.47;;;1.90;;
43664;SDS011;29263;48.172;11.484;2023-04-10T12:51:18;2.17;;;1.77;;
43664;SDS011;29263;48.172;11.484;2023-04-10T12:53:46;2.55;;;2.20;;
43664;SDS011;29263;48.172;11.484;2023-04-10T12:56:11;3.03;;;1.80;;
43664;SDS011;29263;48.172;11.484;2023-04-10T12:58:38;2.28;;;1.98;;
43664;SDS011;29263;48.172;11.484;2023-04-10T13:01:07;2.25;;;1.90;;
43664;SDS011;29263;48.172;11.484;2023-04-10T13:03:33;2.42;;;1.90;;
43664;SDS011;29263;48.172;11.484;2023-04-10T13:06:00;2.20;;;1.75;;
43664;SDS011;29263;48.172;11.484;2023-04-10T13:08:26;2.00;;;1.65;;
43664;SDS011;29263;48.172;11.484;2023-04-10T13:10:52;2.45;;;2.00;;
43664;SDS011;29263;48.172;11.484;2023-04-10T13:13:19;3.58;;;2.30;;
43664;SDS011;29263;48.172;11.484;2023-04-10T13:15:45;2.67;;;2.20;;
43664;SDS011;29263;48.172;11.484;2023-04-10T13:18:10;3.92;;;2.08;;
43664;SDS011;29263;48.172;11.484;2023-04-10T13:20:39;1.88;;;1.67;;
43664;SDS011;29263;48.172;11.484;2023-04-10T13:23:06;2.03;;;1.70;;
43664;SDS011;29263;48.172;11.484;2023-04-10T13:25:32;2.30;;;1.73;;
43664;SDS011;29263;48.172;11.484;2023-04-10T13:28:00;2.33;;;1.80;;
43664;SDS011;29263;48.172;11.484;2023-04-10T13:30:29;2.67;;;2.08;;
43664;SDS011;29263;48.172;11.484;2023-04-10T13:32:55;1.65;;;1.52;;
43664;SDS011;29263;48.172;11.484;2023-04-10T13:35:20;2.40;;;1.90;;
43664;SDS011;29263;48.172;11.484;2023-04-10T13:37:46;2.00;;;1.80;;
43664;SDS011;29263;48.172;11.484;2023-04-10T13:40:12;2.58;;;1.88;;
43664;SDS011;29263;48.172;11.484;2023-04-10T13:42:38;1.88;;;1.55;;
43664;SDS011;29263;48.172;11.484;2023-04-10T13:45:03;2.35;;;2.10;;
43664;SDS011;29263;48.172;11.484;2023-04-10T13:47:29;1.95;;;1.58;;
43664;SDS011;29263;48.172;11.484;2023-04-10T13:49:55;2.10;;;1.83;;
43664;SDS011;29263;48.172;11.484;2023-04-10T13:52:20;1.33;;;1.23;;
43664;SDS011;29263;48.172;11.484;2023-04-10T13:54:46;1.77;;;1.45;;
43664;SDS011;29263;48.172;11.484;2023-04-10T13:57:11;2.83;;;1.40;;
43664;SDS011;29263;48.172;11.484;2023-04-10T13:59:37;2.50;;;1.77;;
43664;SDS011;29263;48.172;11.484;2023-04-10T14:02:04;2.17;;;1.67;;
43664;SDS011;29263;48.172;11.484;2023-04-10T14:04:29;1.60;;;1.45;;
43664;SDS011;29263;48.172;11.484;2023-04-10T14:06:55;2.58;;;1.67;;
43664;SDS011;29263;48.172;11.484;2023-04-10T14:09:21;4.57;;;2.05;;
43664;SDS011;29263;48.172;11.484;2023-04-10T14:11:47;2.00;;;1.80;;
43664;SDS011;29263;48.172;11.484;2023-04-10T14:14:13;2.17;;;1.77;;
43664;SDS011;29263;48.172;11.484;2023-04-10T14:16:38;2.00;;;1.70;;
43664;SDS011;29263;48.172;11.484;2023-04-10T14:19:04;2.05;;;1.52;;
43664;SDS011;29263;48.172;11.484;2023-04-10T14:21:29;1.73;;;1.50;;
43664;SDS011;29263;48.172;11.484;2023-04-10T14:23:55;1.60;;;1.50;;
43664;SDS011;29263;48.172;11.484;2023-04-10T14:26:21;1.92;;;1.60;;
43664;SDS011;29263;48.172;11.484;2023-04-10T14:28:47;1.50;;;1.40;;
43664;SDS011;29263;48.172;11.484;2023-04-10T14:31:13;1.88;;;1.65;;
43664;SDS011;29263;48.172;11.484;2023-04-10T14:33:38;2.05;;;1.70;;
43664;SDS011;29263;48.172;11.484;2023-04-10T14:36:04;1.63;;;1.52;;
43664;SDS011;29263;48.172;11.484;2023-04-10T14:38:30;1.90;;;1.50;;
43664;SDS011;29263;48.172;11.484;2023-04-10T14:40:56;1.75;;;1.65;;
43664;SDS011;29263;48.172;11.484;2023-04-10T14:43:21;1.67;;;1.58;;
43664;SDS011;29263;48.172;11.484;2023-04-10T14:45:47;1.85;;;1.73;;
43664;SDS011;29263;48.172;11.484;2023-04-10T14:48:13;1.65;;;1.50;;
43664;SDS011;29263;48.172;11.484;2023-04-10T14:50:39;1.90;;;1.63;;
43664;SDS011;29263;48.172;11.484;2023-04-10T14:53:04;2.03;;;1.50;;
43664;SDS011;29263;48.172;11.484;2023-04-10T14:55:33;1.48;;;1.38;;
43664;SDS011;29263;48.172;11.484;2023-04-10T14:57:59;1.80;;;1.70;;
43664;SDS011;29263;48.172;11.484;2023-04-10T15:00:24;1.92;;;1.40;;
43664;SDS011;29263;48.172;11.484;2023-04-10T15:02:50;1.55;;;1.45;;
43664;SDS011;29263;48.172;11.484;2023-04-10T15:05:16;1.67;;;1.50;;
43664;SDS011;29263;48.172;11.484;2023-04-10T15:07:41;2.08;;;1.88;;
43664;SDS011;29263;48.172;11.484;2023-04-10T15:10:07;1.60;;;1.50;;
43664;SDS011;29263;48.172;11.484;2023-04-10T15:12:34;2.15;;;1.90;;
43664;SDS011;29263;48.172;11.484;2023-04-10T15:15:00;1.85;;;1.63;;
43664;SDS011;29263;48.172;11.484;2023-04-10T15:17:25;2.08;;;1.88;;
43664;SDS011;29263;48.172;11.484;2023-04-10T15:19:52;1.70;;;1.60;;
43664;SDS011;29263;48.172;11.484;2023-04-10T15:22:18;3.88;;;1.80;;
43664;SDS011;29263;48.172;11.484;2023-04-10T15:24:43;1.80;;;1.70;;
43664;SDS011;29263;48.172;11.484;2023-04-10T15:27:09;3.55;;;1.60;;
43664;SDS011;29263;48.172;11.484;2023-04-10T15:29:37;1.88;;;1.63;;
43664;SDS011;29263;48.172;11.484;2023-04-10T15:32:05;2.03;;;1.60;;